Time;durP1;ratioP1;P1;durP2;ratioP2;P2;SDS_P1;SDS_P2;PMS_P1;PMS_P2;Temp;Humidity;BMP_temperature;BMP_pressure;BME280_temperature;BME280_humidity;BME280_pressure;Samples;Min_cycle;Max_cycle;Signal;HPM_P1;HPM_P2
2021/04/09 00:01:47;;;;;;;12.07;7.90;;;2.90;92.00;;;;;;5030953;28;20783;-83
2021/04/09 00:04:14;;;;;;;11.82;7.25;;;2.90;92.10;;;;;;5039920;28;20227;-86
2021/04/09 00:06:41;;;;;;;10.98;8.32;;;2.90;92.10;;;;;;5039539;28;20303;-82
2021/04/09 00:09:11;;;;;;;9.65;7.38;;;2.80;92.20;;;;;;5016961;28;20758;-84
2021/04/09 00:11:39;;;;;;;11.18;8.13;;;2.80;92.70;;;;;;5027994;28;20315;-84
2021/04/09 00:14:07;;;;;;;8.57;7.00;;;2.80;92.70;;;;;;5026574;28;20709;-84
2021/04/09 00:16:34;;;;;;;11.50;6.70;;;2.90;92.50;;;;;;5024341;28;20256;-84
2021/04/09 00:19:01;;;;;;;10.75;6.85;;;2.80;92.50;;;;;;5026258;28;20998;-84
2021/04/09 00:21:28;;;;;;;12.65;7.70;;;2.80;92.60;;;;;;5040046;28;20339;-82
2021/04/09 00:23:55;;;;;;;16.40;8.32;;;2.80;92.70;;;;;;4995474;28;20783;-83
2021/04/09 00:26:23;;;;;;;11.93;8.30;;;2.70;93.10;;;;;;5017893;28;21153;-82
2021/04/09 00:28:50;;;;;;;12.18;8.25;;;2.70;93.20;;;;;;5023996;28;20241;-83
2021/04/09 00:31:18;;;;;;;9.35;7.32;;;2.60;93.60;;;;;;5035909;28;20233;-82
2021/04/09 00:33:45;;;;;;;9.52;6.88;;;2.50;93.90;;;;;;5040251;28;20225;-83
2021/04/09 00:36:12;;;;;;;13.10;7.20;;;2.40;94.30;;;;;;5035725;28;20227;-82
2021/04/09 00:38:39;;;;;;;9.80;7.70;;;2.40;94.60;;;;;;5036028;28;20256;-82
2021/04/09 00:41:06;;;;;;;16.30;7.85;;;2.40;94.80;;;;;;5031585;28;20236;-83
2021/04/09 00:43:34;;;;;;;12.27;8.45;;;2.30;95.00;;;;;;5015928;28;20232;-82
2021/04/09 00:46:01;;;;;;;10.45;7.60;;;2.30;95.30;;;;;;5034846;28;20220;-84
2021/04/09 00:48:28;;;;;;;13.02;7.65;;;2.20;95.70;;;;;;5040120;28;20713;-83
2021/04/09 00:50:55;;;;;;;12.80;8.05;;;2.20;95.90;;;;;;5028372;28;20224;-82
2021/04/09 00:53:26;;;;;;;12.05;8.25;;;2.10;96.20;;;;;;5024008;28;20446;-83
2021/04/09 00:55:53;;;;;;;13.05;8.15;;;2.00;96.70;;;;;;5029795;28;20236;-85
2021/04/09 00:58:21;;;;;;;12.60;7.55;;;2.00;97.30;;;;;;5027894;28;20246;-84
2021/04/09 01:00:49;;;;;;;14.73;7.43;;;2.00;97.10;;;;;;5025299;28;20238;-83
2021/04/09 01:03:17;;;;;;;11.88;8.00;;;2.00;96.80;;;;;;5034876;28;20230;-83
2021/04/09 01:05:44;;;;;;;9.32;7.07;;;2.00;96.70;;;;;;5043193;28;20226;-85
2021/04/09 01:08:11;;;;;;;10.65;7.07;;;2.00;96.60;;;;;;5040766;28;20234;-83
2021/04/09 01:10:39;;;;;;;14.55;6.45;;;2.10;96.40;;;;;;5028449;28;20996;-85
2021/04/09 01:13:06;;;;;;;9.50;6.88;;;2.10;96.50;;;;;;5032561;28;20295;-83
2021/04/09 01:15:33;;;;;;;11.50;7.68;;;2.10;96.20;;;;;;5023200;28;20303;-84
2021/04/09 01:18:09;;;;;;;10.50;7.05;;;2.10;96.20;;;;;;5040210;28;20233;-83
2021/04/09 01:20:54;;;;;;;9.57;6.85;;;2.10;96.40;;;;;;5026489;28;20311;-84
2021/04/09 01:23:41;;;;;;;8.63;6.47;;;2.10;96.30;;;;;;5025289;28;20224;-84
2021/04/09 01:26:47;;;;;;;10.40;7.53;;;2.00;96.70;;;;;;5030626;28;20767;-82
2021/04/09 01:29:48;;;;;;;12.20;7.20;;;2.00;97.10;;;;;;4987519;28;20243;-83
2021/04/09 01:32:17;;;;;;;15.82;7.20;;;1.90;97.40;;;;;;4988444;28;20234;-85
2021/04/09 01:34:47;;;;;;;13.40;7.97;;;1.90;97.60;;;;;;5013055;28;20228;-83
2021/04/09 01:37:16;;;;;;;7.65;6.82;;;1.90;97.90;;;;;;5010658;28;20225;-85
2021/04/09 01:39:51;;;;;;;10.27;7.20;;;1.90;97.90;;;;;;5037630;28;20769;-87
2021/04/09 01:42:20;;;;;;;10.85;8.43;;;1.90;98.10;;;;;;5030625;28;20306;-83
2021/04/09 01:44:51;;;;;;;10.48;7.88;;;1.90;98.20;;;;;;5022053;28;20369;-84
2021/04/09 01:47:22;;;;;;;12.27;7.15;;;1.90;98.10;;;;;;5035522;28;20311;-82
2021/04/09 01:49:53;;;;;;;12.82;7.85;;;1.80;98.50;;;;;;5037164;28;20242;-85
2021/04/09 01:52:20;;;;;;;12.98;7.38;;;1.80;98.50;;;;;;5036056;28;20220;-85
2021/04/09 01:54:48;;;;;;;18.65;8.02;;;1.80;98.30;;;;;;5024490;28;20735;-84
2021/04/09 01:57:20;;;;;;;15.52;7.43;;;1.80;98.30;;;;;;5016520;28;20317;-86
2021/04/09 01:59:49;;;;;;;10.30;7.40;;;1.80;98.70;;;;;;5025003;28;20716;-84
2021/04/09 02:02:17;;;;;;;8.80;7.03;;;1.80;98.60;;;;;;5039126;28;20205;-85
2021/04/09 02:04:47;;;;;;;12.95;8.60;;;1.80;98.60;;;;;;5047945;28;20254;-83
2021/04/09 02:07:17;;;;;;;9.77;7.22;;;1.80;98.60;;;;;;5047264;28;20597;-83
2021/04/09 02:09:45;;;;;;;16.15;7.78;;;1.80;98.50;;;;;;5050824;28;20606;-83
2021/04/09 02:12:13;;;;;;;13.30;8.13;;;1.80;98.30;;;;;;5048225;28;20211;-84
2021/04/09 02:14:43;;;;;;;11.32;7.97;;;1.80;98.30;;;;;;5042263;28;20595;-83
2021/04/09 02:17:11;;;;;;;12.20;7.63;;;1.90;98.20;;;;;;5011969;28;20312;-82
2021/04/09 02:19:40;;;;;;;8.48;6.90;;;1.90;98.30;;;;;;5032179;28;20234;-86
2021/04/09 02:22:08;;;;;;;10.32;7.10;;;1.90;98.20;;;;;;5028871;28;20228;-84
2021/04/09 02:24:35;;;;;;;13.93;7.95;;;1.90;98.20;;;;;;5030544;28;20223;-86
2021/04/09 02:27:04;;;;;;;11.30;7.25;;;1.90;98.10;;;;;;5032322;28;20596;-85
2021/04/09 02:29:32;;;;;;;12.13;7.93;;;1.90;98.00;;;;;;5022044;28;20233;-84
2021/04/09 02:31:59;;;;;;;13.23;7.85;;;1.90;98.20;;;;;;5036491;28;20322;-85
2021/04/09 02:34:27;;;;;;;12.25;7.82;;;1.90;98.60;;;;;;5040116;28;20247;-85
2021/04/09 02:36:55;;;;;;;11.30;8.02;;;1.90;98.60;;;;;;5023870;28;20708;-84
2021/04/09 02:39:26;;;;;;;13.32;8.30;;;1.80;98.80;;;;;;5032292;28;20239;-82
2021/04/09 02:41:57;;;;;;;9.05;8.10;;;1.80;99.00;;;;;;5016772;28;20235;-84
2021/04/09 02:44:24;;;;;;;11.10;8.05;;;1.70;99.30;;;;;;5032808;28;20276;-84
2021/04/09 02:46:54;;;;;;;16.35;8.18;;;1.60;99.50;;;;;;5027233;28;20495;-86
2021/04/09 02:49:29;;;;;;;14.10;8.10;;;1.60;99.80;;;;;;5030244;28;20630;-85
2021/04/09 02:51:58;;;;;;;14.20;7.75;;;1.50;99.80;;;;;;5030053;28;20232;-84
2021/04/09 02:54:29;;;;;;;10.10;7.40;;;1.50;99.80;;;;;;5030051;28;20774;-85
2021/04/09 02:56:58;;;;;;;12.95;6.80;;;1.50;99.80;;;;;;5024173;28;20231;-83
2021/04/09 02:59:27;;;;;;;13.45;7.55;;;1.50;99.80;;;;;;5025171;28;20227;-84
2021/04/09 03:01:55;;;;;;;13.23;7.82;;;1.40;99.80;;;;;;5022519;28;20256;-82
2021/04/09 03:04:22;;;;;;;13.80;8.20;;;1.40;99.80;;;;;;5035975;28;20239;-84
2021/04/09 03:06:50;;;;;;;14.32;7.80;;;1.50;99.80;;;;;;5044404;28;20247;-82
2021/04/09 03:09:17;;;;;;;13.23;9.20;;;1.60;99.80;;;;;;5028477;28;20256;-82
2021/04/09 03:11:45;;;;;;;30.60;13.75;;;1.60;99.80;;;;;;5020145;28;20231;-84
2021/04/09 03:14:13;;;;;;;30.33;16.88;;;1.60;99.80;;;;;;5001959;28;20234;-82
2021/04/09 03:16:46;;;;;;;25.25;15.05;;;1.60;99.80;;;;;;5032254;28;20289;-84
2021/04/09 03:19:13;;;;;;;12.60;10.60;;;1.60;99.80;;;;;;5034721;28;20248;-84
2021/04/09 03:21:41;;;;;;;10.90;8.40;;;1.60;99.80;;;;;;5028575;28;20236;-85
2021/04/09 03:24:08;;;;;;;12.40;8.63;;;1.50;99.80;;;;;;5030987;28;21135;-84
2021/04/09 03:26:35;;;;;;;32.10;17.20;;;1.60;99.80;;;;;;5032866;28;20231;-84
2021/04/09 03:29:03;;;;;;;21.27;12.75;;;1.60;99.80;;;;;;5025744;28;20235;-84
2021/04/09 03:31:31;;;;;;;26.27;12.90;;;1.60;99.80;;;;;;5030009;28;20224;-84
2021/04/09 03:33:58;;;;;;;32.85;15.50;;;1.60;99.80;;;;;;5038370;28;20317;-83
2021/04/09 03:36:25;;;;;;;34.75;15.35;;;1.60;99.80;;;;;;5044998;28;20596;-84
2021/04/09 03:38:52;;;;;;;41.70;16.55;;;1.60;99.80;;;;;;5031377;28;20231;-84
2021/04/09 03:41:21;;;;;;;20.98;11.25;;;1.50;99.80;;;;;;5024625;28;20243;-87
2021/04/09 03:43:48;;;;;;;19.00;9.55;;;1.50;99.80;;;;;;5034084;28;20233;-84
2021/04/09 03:46:17;;;;;;;17.98;11.40;;;1.60;99.80;;;;;;5033397;28;20252;-84
2021/04/09 03:48:44;;;;;;;17.67;10.90;;;1.60;99.80;;;;;;5038472;28;20232;-83
2021/04/09 03:51:11;;;;;;;17.80;9.93;;;1.60;99.80;;;;;;5038970;28;20752;-83
2021/04/09 03:53:39;;;;;;;14.98;8.43;;;1.60;99.80;;;;;;5024946;28;20960;-84
2021/04/09 03:56:06;;;;;;;14.00;8.68;;;1.60;99.80;;;;;;5014774;28;20291;-85
2021/04/09 03:58:33;;;;;;;13.38;8.05;;;1.60;99.80;;;;;;5020388;28;20233;-85
2021/04/09 04:01:00;;;;;;;13.23;7.70;;;1.60;99.80;;;;;;5017858;28;20240;-83
2021/04/09 04:03:28;;;;;;;11.25;7.88;;;1.70;99.80;;;;;;5035793;28;20232;-85
2021/04/09 04:05:55;;;;;;;18.52;7.95;;;1.80;99.50;;;;;;5039314;28;20237;-84
2021/04/09 04:08:22;;;;;;;16.27;8.25;;;1.80;99.50;;;;;;5040758;28;20239;-83
2021/04/09 04:10:49;;;;;;;11.82;8.15;;;1.80;99.60;;;;;;5033027;28;20224;-83
2021/04/09 04:13:22;;;;;;;10.20;7.85;;;1.70;99.80;;;;;;4998155;28;20312;-84
2021/04/09 04:15:50;;;;;;;8.98;7.18;;;1.70;99.60;;;;;;5030034;28;20238;-84
2021/04/09 04:18:18;;;;;;;14.10;8.55;;;1.70;99.80;;;;;;5035719;28;20257;-85
2021/04/09 04:20:46;;;;;;;17.70;9.30;;;1.60;99.80;;;;;;5042550;28;20224;-85
2021/04/09 04:23:13;;;;;;;12.88;7.70;;;1.60;99.80;;;;;;5009886;28;20342;-84
2021/04/09 04:25:40;;;;;;;11.38;7.65;;;1.60;99.80;;;;;;5014393;28;20232;-84
2021/04/09 04:28:07;;;;;;;15.85;9.75;;;1.50;99.80;;;;;;5013416;28;20237;-84
2021/04/09 04:30:34;;;;;;;10.98;8.48;;;1.50;99.80;;;;;;4997766;28;20343;-84
2021/04/09 04:33:01;;;;;;;14.57;7.80;;;1.50;99.80;;;;;;5028517;28;20232;-83
2021/04/09 04:35:28;;;;;;;11.65;7.75;;;1.50;99.80;;;;;;5008090;28;20222;-83
2021/04/09 04:37:58;;;;;;;14.40;9.00;;;1.40;99.80;;;;;;5020445;28;20404;-83
2021/04/09 04:40:25;;;;;;;12.48;8.43;;;1.40;99.80;;;;;;5020643;28;20243;-84
2021/04/09 04:42:52;;;;;;;15.15;9.65;;;1.30;99.80;;;;;;5023940;28;20229;-84
2021/04/09 04:45:19;;;;;;;16.15;10.18;;;1.30;99.80;;;;;;5020756;28;20237;-83
2021/04/09 04:47:46;;;;;;;23.63;13.55;;;1.30;99.80;;;;;;5038315;28;20238;-85
2021/04/09 04:50:14;;;;;;;17.98;12.07;;;1.20;99.80;;;;;;5041884;28;20228;-84
2021/04/09 04:52:41;;;;;;;27.95;16.80;;;1.20;99.80;;;;;;5031639;28;20243;-85
2021/04/09 04:55:10;;;;;;;26.40;13.40;;;1.10;99.80;;;;;;5034722;28;20228;-86
2021/04/09 04:57:37;;;;;;;21.58;13.52;;;1.00;99.80;;;;;;5024962;28;20232;-85
2021/04/09 05:00:05;;;;;;;43.22;26.42;;;1.00;99.80;;;;;;5021340;28;20691;-84
2021/04/09 05:02:32;;;;;;;20.17;14.32;;;1.00;99.80;;;;;;5032002;28;20332;-83
2021/04/09 05:04:59;;;;;;;42.13;19.20;;;1.00;99.80;;;;;;5008111;28;20612;-83
2021/04/09 05:07:27;;;;;;;27.65;14.98;;;0.90;99.80;;;;;;5025495;28;20235;-84
2021/04/09 05:09:54;;;;;;;20.77;12.90;;;0.90;99.80;;;;;;5038946;28;20231;-86
2021/04/09 05:12:22;;;;;;;23.38;11.13;;;0.90;99.80;;;;;;5032475;28;20959;-86
2021/04/09 05:14:51;;;;;;;27.10;15.95;;;1.00;99.80;;;;;;5036035;28;20240;-84
2021/04/09 05:17:18;;;;;;;24.35;13.05;;;1.10;99.80;;;;;;5030277;28;20224;-83
2021/04/09 05:19:46;;;;;;;40.10;23.30;;;1.10;99.80;;;;;;5041361;28;20584;-85
2021/04/09 05:22:13;;;;;;;34.50;20.85;;;1.10;99.80;;;;;;5036892;28;20696;-83
2021/04/09 05:24:40;;;;;;;36.58;23.45;;;1.10;99.80;;;;;;5031762;28;20257;-84
2021/04/09 05:27:07;;;;;;;56.22;33.58;;;1.20;99.80;;;;;;4995875;28;20243;-83
2021/04/09 05:29:37;;;;;;;30.75;21.35;;;1.30;99.80;;;;;;5030022;28;20524;-86
2021/04/09 05:32:05;;;;;;;34.15;22.05;;;1.30;99.80;;;;;;5040164;28;20220;-84
2021/04/09 05:34:33;;;;;;;23.13;14.65;;;1.30;99.80;;;;;;5029979;28;20310;-84
2021/04/09 05:37:00;;;;;;;17.42;12.23;;;1.40;99.80;;;;;;5028539;28;20239;-84
2021/04/09 05:39:27;;;;;;;18.05;11.07;;;1.40;99.80;;;;;;5024117;28;20299;-82
2021/04/09 05:41:54;;;;;;;22.02;11.98;;;1.50;99.80;;;;;;5012129;28;20233;-85
2021/04/09 05:44:21;;;;;;;14.93;9.93;;;1.70;99.80;;;;;;5022909;28;20236;-82
2021/04/09 05:46:49;;;;;;;14.05;9.55;;;1.90;99.80;;;;;;5037721;28;20260;-85
2021/04/09 05:49:16;;;;;;;18.05;11.32;;;2.00;99.80;;;;;;5037082;28;20831;-84
2021/04/09 05:51:43;;;;;;;20.83;10.18;;;2.10;99.80;;;;;;5042083;28;20229;-83
2021/04/09 05:54:11;;;;;;;17.30;11.07;;;2.20;99.80;;;;;;5037044;28;20306;-84
2021/04/09 05:56:38;;;;;;;13.20;9.30;;;2.40;99.80;;;;;;5027992;28;20255;-82
2021/04/09 05:59:05;;;;;;;16.38;10.63;;;2.50;99.80;;;;;;5022350;28;21032;-83
2021/04/09 06:01:32;;;;;;;21.60;10.38;;;2.60;99.80;;;;;;5026336;28;20251;-83
2021/04/09 06:04:00;;;;;;;16.55;9.60;;;2.70;99.70;;;;;;5036886;28;20236;-83
2021/04/09 06:06:26;;;;;;;15.40;10.10;;;2.80;99.70;;;;;;5036523;28;20241;-84
2021/04/09 06:08:53;;;;;;;19.35;9.77;;;2.90;99.70;;;;;;5022356;28;20599;-82
2021/04/09 06:11:21;;;;;;;17.48;10.43;;;3.10;99.00;;;;;;5026754;28;20224;-82
2021/04/09 06:13:48;;;;;;;14.40;9.63;;;3.20;98.50;;;;;;5028132;28;20233;-84
2021/04/09 06:16:16;;;;;;;15.07;9.82;;;3.30;98.20;;;;;;5033861;28;20270;-83
2021/04/09 06:18:43;;;;;;;15.13;10.10;;;3.30;97.90;;;;;;5025647;28;20290;-85
2021/04/09 06:21:10;;;;;;;17.70;10.30;;;3.50;97.40;;;;;;5030933;28;20224;-83
2021/04/09 06:23:37;;;;;;;20.65;11.95;;;3.50;97.00;;;;;;5020562;28;21153;-85
2021/04/09 06:26:04;;;;;;;13.63;10.00;;;3.60;97.00;;;;;;5000705;28;20223;-83
2021/04/09 06:28:33;;;;;;;16.42;11.25;;;3.70;96.80;;;;;;5034917;28;20259;-83
2021/04/09 06:31:00;;;;;;;15.50;9.43;;;3.80;96.80;;;;;;5028509;28;20303;-83
2021/04/09 06:33:37;;;;;;;19.52;10.73;;;3.90;97.30;;;;;;5045908;28;20587;-83
2021/04/09 06:36:06;;;;;;;19.58;11.45;;;4.00;96.90;;;;;;5044024;28;20229;-83
2021/04/09 06:38:33;;;;;;;19.85;11.05;;;4.10;97.30;;;;;;5020845;28;20236;-86
2021/04/09 06:41:02;;;;;;;18.33;11.85;;;4.10;97.80;;;;;;5038293;28;20691;-87
2021/04/09 06:43:30;;;;;;;15.63;10.80;;;4.10;97.80;;;;;;5008597;28;20236;-86
2021/04/09 06:45:57;;;;;;;20.60;11.15;;;4.10;98.00;;;;;;5013958;28;20323;-86
2021/04/09 06:48:24;;;;;;;12.90;9.80;;;4.20;96.50;;;;;;5017479;28;20234;-87
2021/04/09 06:50:51;;;;;;;17.25;9.93;;;4.20;96.80;;;;;;5029728;28;20230;-86
2021/04/09 06:53:19;;;;;;;15.43;10.52;;;4.30;96.60;;;;;;5019290;28;20276;-86
2021/04/09 06:55:47;;;;;;;15.70;9.85;;;4.50;95.70;;;;;;5031166;28;20980;-87
2021/04/09 06:58:17;;;;;;;16.75;9.63;;;4.70;96.00;;;;;;5035442;28;20221;-87
2021/04/09 07:00:47;;;;;;;19.77;10.88;;;4.90;95.70;;;;;;5017016;28;20723;-87
2021/04/09 07:03:14;;;;;;;19.38;10.70;;;5.00;94.30;;;;;;5026869;28;20226;-87
2021/04/09 07:05:41;;;;;;;13.83;11.47;;;5.20;94.00;;;;;;5027424;28;20312;-87
2021/04/09 07:08:08;;;;;;;22.00;11.65;;;5.30;93.90;;;;;;5021470;28;20643;-86
2021/04/09 07:10:36;;;;;;;15.57;9.40;;;5.50;91.80;;;;;;5017715;28;20371;-86
2021/04/09 07:13:05;;;;;;;18.47;10.10;;;5.50;91.00;;;;;;5031557;28;20541;-86
2021/04/09 07:15:43;;;;;;;12.88;9.05;;;5.60;90.50;;;;;;5012852;28;20483;-88
2021/04/09 07:18:11;;;;;;;18.33;10.20;;;5.70;90.50;;;;;;5031898;28;20229;-86
2021/04/09 07:20:44;;;;;;;14.83;11.10;;;5.70;91.10;;;;;;5013079;28;20742;-86
2021/04/09 07:23:12;;;;;;;15.10;10.50;;;5.80;90.60;;;;;;5016196;28;20485;-86
2021/04/09 07:25:42;;;;;;;12.60;9.53;;;5.90;90.00;;;;;;5018345;28;20473;-87
2021/04/09 07:28:13;;;;;;;19.20;10.70;;;5.90;89.60;;;;;;5026496;28;20600;-87
2021/04/09 07:30:42;;;;;;;14.18;10.10;;;6.00;90.50;;;;;;5007996;28;20475;-87
2021/04/09 07:33:10;;;;;;;12.63;10.20;;;6.20;90.20;;;;;;5028199;28;20283;-88
2021/04/09 07:35:45;;;;;;;13.07;9.37;;;6.30;88.80;;;;;;5026330;28;21481;-87
2021/04/09 07:38:20;;;;;;;15.23;10.50;;;6.40;89.10;;;;;;5042019;28;20553;-88
2021/04/09 07:40:59;;;;;;;16.33;10.47;;;6.50;89.40;;;;;;5032620;28;20475;-85
2021/04/09 07:43:29;;;;;;;16.97;10.80;;;6.60;88.90;;;;;;5022251;28;20981;-85
2021/04/09 07:45:58;;;;;;;14.97;9.73;;;6.80;88.50;;;;;;5025557;28;20521;-85
2021/04/09 07:48:30;;;;;;;15.63;10.27;;;6.90;89.10;;;;;;5041190;28;20498;-86
2021/04/09 07:50:58;;;;;;;17.63;11.07;;;7.00;87.40;;;;;;5023979;28;20476;-85
2021/04/09 07:53:45;;;;;;;14.40;9.80;;;7.00;88.10;;;;;;5024700;28;20482;-85
2021/04/09 07:56:14;;;;;;;14.40;8.47;;;7.10;87.80;;;;;;5018771;28;21320;-85
2021/04/09 07:58:55;;;;;;;12.23;8.70;;;7.30;87.70;;;;;;5026460;28;21352;-85
2021/04/09 08:01:25;;;;;;;11.53;8.63;;;7.50;85.70;;;;;;5013048;28;20473;-85
2021/04/09 08:03:52;;;;;;;14.40;9.67;;;7.70;85.40;;;;;;5022718;28;20946;-85
2021/04/09 08:06:21;;;;;;;13.23;10.30;;;7.80;86.10;;;;;;5033216;28;20503;-83
2021/04/09 08:09:03;;;;;;;14.57;9.77;;;7.90;86.00;;;;;;5014659;28;20472;-84
2021/04/09 08:11:38;;;;;;;12.77;8.63;;;8.00;84.50;;;;;;5003995;28;20486;-85
2021/04/09 08:14:09;;;;;;;12.90;9.17;;;8.10;83.90;;;;;;5001745;28;20563;-85
2021/04/09 08:16:38;;;;;;;11.00;8.60;;;8.10;83.50;;;;;;5028732;28;20483;-84
2021/04/09 08:19:10;;;;;;;11.67;8.47;;;8.10;81.80;;;;;;5042396;28;20470;-84
2021/04/09 08:21:39;;;;;;;16.13;9.20;;;8.20;83.40;;;;;;5026488;28;20537;-85
2021/04/09 08:24:08;;;;;;;13.30;8.70;;;8.20;83.10;;;;;;5029510;28;20481;-85
2021/04/09 08:26:36;;;;;;;14.40;8.43;;;8.30;82.40;;;;;;5031984;28;20877;-86
2021/04/09 08:29:06;;;;;;;11.90;9.37;;;8.30;83.20;;;;;;5025220;28;20888;-85
2021/04/09 08:31:36;;;;;;;12.13;8.40;;;8.40;83.50;;;;;;5021044;28;20473;-85
2021/04/09 08:34:07;;;;;;;13.43;8.70;;;8.60;82.30;;;;;;5017320;28;20531;-85
2021/04/09 08:36:37;;;;;;;14.43;8.77;;;8.80;82.00;;;;;;5013388;28;20470;-85
2021/04/09 08:39:05;;;;;;;15.50;8.73;;;9.10;82.40;;;;;;5016978;28;20532;-85
2021/04/09 08:41:32;;;;;;;10.37;9.37;;;9.30;82.50;;;;;;5017166;28;21027;-85
2021/04/09 08:44:00;;;;;;;14.00;7.90;;;9.50;80.20;;;;;;5029688;28;20495;-84
2021/04/09 08:46:28;;;;;;;11.83;8.87;;;9.70;79.60;;;;;;5028033;28;20499;-85
2021/04/09 08:48:56;;;;;;;12.67;8.87;;;9.80;76.40;;;;;;5036736;28;21070;-85
2021/04/09 08:51:24;;;;;;;15.00;8.63;;;9.70;79.50;;;;;;5031301;28;20489;-85
2021/04/09 08:53:52;;;;;;;11.83;8.87;;;9.80;76.90;;;;;;5026037;28;20469;-85
2021/04/09 08:56:33;;;;;;;16.43;8.37;;;9.80;78.20;;;;;;5027723;28;20508;-85
2021/04/09 08:59:01;;;;;;;12.90;7.83;;;9.90;77.90;;;;;;5039042;28;20462;-85
2021/04/09 09:01:30;;;;;;;11.97;8.67;;;10.10;76.40;;;;;;5020821;28;21154;-85
2021/04/09 09:04:38;;;;;;;17.07;9.23;;;10.20;77.80;;;;;;5024955;28;20579;-85
2021/04/09 09:07:06;;;;;;;13.60;7.93;;;10.50;77.20;;;;;;4958612;28;20967;-86
2021/04/09 09:09:35;;;;;;;12.63;8.50;;;10.70;76.40;;;;;;5002242;28;21327;-85
2021/04/09 09:12:03;;;;;;;12.43;7.67;;;10.80;76.50;;;;;;5013760;28;20482;-86
2021/04/09 09:14:45;;;;;;;9.20;7.80;;;11.00;75.20;;;;;;5030474;28;20569;-87
2021/04/09 09:17:39;;;;;;;13.93;9.17;;;10.90;73.40;;;;;;5039453;28;20469;-87
2021/04/09 09:20:12;;;;;;;14.60;9.40;;;10.80;72.60;;;;;;5044193;28;20545;-88
2021/04/09 09:22:50;;;;;;;13.87;9.53;;;10.80;75.30;;;;;;5056088;28;20547;-88
2021/04/09 09:25:41;;;;;;;12.63;7.83;;;10.90;72.50;;;;;;5053370;28;20984;-87
2021/04/09 09:28:17;;;;;;;16.83;8.40;;;11.10;73.30;;;;;;5025721;28;20494;-87
2021/04/09 09:30:54;;;;;;;8.70;7.33;;;11.20;72.40;;;;;;5025758;28;20470;-88
2021/04/09 09:33:27;;;;;;;12.60;8.30;;;11.40;70.00;;;;;;5044139;28;20565;-88
2021/04/09 09:36:01;;;;;;;10.93;7.60;;;11.60;72.00;;;;;;5027300;28;20469;-87
2021/04/09 09:38:53;;;;;;;12.30;8.63;;;11.80;73.70;;;;;;5026800;28;20473;-88
2021/04/09 09:41:41;;;;;;;13.07;7.40;;;12.00;68.90;;;;;;5009076;28;20473;-87
2021/04/09 09:44:29;;;;;;;11.30;8.60;;;12.00;68.80;;;;;;5008341;28;20466;-87
2021/04/09 09:46:58;;;;;;;14.13;7.40;;;12.00;68.70;;;;;;5023002;28;20596;-87
2021/04/09 09:49:28;;;;;;;9.07;7.33;;;12.00;67.60;;;;;;5024093;28;20524;-86
2021/04/09 09:51:56;;;;;;;9.07;7.67;;;12.10;66.90;;;;;;5027858;28;20509;-88
2021/04/09 09:54:29;;;;;;;8.73;6.97;;;12.10;67.80;;;;;;5029222;28;20482;-86
2021/04/09 09:56:57;;;;;;;13.80;8.03;;;12.40;66.50;;;;;;5020707;28;20578;-86
2021/04/09 09:59:27;;;;;;;10.47;7.17;;;12.70;68.00;;;;;;5040467;28;20562;-86
2021/04/09 10:01:56;;;;;;;10.03;6.63;;;12.90;68.90;;;;;;5011387;28;20484;-87
2021/04/09 10:04:26;;;;;;;12.03;7.10;;;13.00;64.80;;;;;;5049723;28;20474;-87
2021/04/09 10:06:53;;;;;;;9.70;7.00;;;13.00;65.10;;;;;;5042441;28;20554;-87
2021/04/09 10:09:28;;;;;;;12.20;7.43;;;13.20;66.10;;;;;;5032031;28;20475;-87
2021/04/09 10:11:56;;;;;;;11.90;7.07;;;13.50;63.60;;;;;;5001231;28;20492;-86
2021/04/09 10:14:28;;;;;;;8.50;6.50;;;13.60;63.60;;;;;;5010323;28;20491;-87
2021/04/09 10:16:58;;;;;;;9.20;6.50;;;13.70;68.20;;;;;;4998290;28;20482;-88
2021/04/09 10:19:26;;;;;;;13.63;7.03;;;14.00;63.50;;;;;;5011991;28;20916;-86
2021/04/09 10:21:54;;;;;;;9.83;7.20;;;14.00;61.60;;;;;;5010548;28;21206;-87
2021/04/09 10:24:36;;;;;;;8.83;6.37;;;14.00;64.00;;;;;;5004171;28;20471;-87
2021/04/09 10:27:04;;;;;;;9.80;6.60;;;14.30;63.70;;;;;;5035999;28;21017;-89
2021/04/09 10:29:33;;;;;;;9.23;7.00;;;14.60;62.70;;;;;;5013060;28;20498;-87
2021/04/09 10:32:02;;;;;;;12.63;7.50;;;14.80;61.10;;;;;;5032975;28;20499;-86
2021/04/09 10:34:33;;;;;;;10.33;6.60;;;15.10;61.30;;;;;;5028022;28;20460;-86
2021/04/09 10:37:03;;;;;;;8.73;7.10;;;15.20;61.00;;;;;;5047793;28;20507;-86
2021/04/09 10:39:30;;;;;;;11.80;6.70;;;15.20;59.70;;;;;;5030385;28;20471;-86
2021/04/09 10:42:02;;;;;;;14.40;6.90;;;15.20;59.80;;;;;;5028532;28;20460;-87
2021/04/09 10:44:31;;;;;;;11.70;8.20;;;15.30;59.80;;;;;;5013707;28;21251;-87
2021/04/09 10:47:00;;;;;;;13.83;6.50;;;15.40;59.10;;;;;;5030417;28;20463;-87
2021/04/09 10:49:30;;;;;;;8.47;6.97;;;15.20;59.40;;;;;;5004583;28;20538;-87
2021/04/09 10:51:59;;;;;;;11.13;7.13;;;15.20;59.40;;;;;;5001996;28;20537;-87
2021/04/09 10:54:29;;;;;;;8.67;5.67;;;15.30;57.60;;;;;;4991604;28;21363;-90
2021/04/09 10:56:57;;;;;;;9.40;5.57;;;15.40;56.90;;;;;;5008371;28;20533;-86
2021/04/09 10:59:26;;;;;;;7.60;6.50;;;15.30;56.90;;;;;;5025990;28;20481;-85
2021/04/09 11:01:53;;;;;;;9.07;7.20;;;15.50;57.80;;;;;;5023448;28;20469;-86
2021/04/09 11:04:21;;;;;;;8.90;6.23;;;15.90;58.10;;;;;;5025705;28;20548;-86
2021/04/09 11:06:51;;;;;;;9.33;6.73;;;16.20;57.60;;;;;;5043435;28;20555;-86
2021/04/09 11:09:19;;;;;;;8.13;7.33;;;16.40;58.40;;;;;;5042449;28;20567;-86
2021/04/09 11:11:48;;;;;;;14.50;6.80;;;16.60;56.50;;;;;;5003113;28;20670;-86
2021/04/09 11:14:18;;;;;;;8.33;6.20;;;16.70;55.50;;;;;;5014212;28;20489;-86
2021/04/09 11:17:05;;;;;;;9.23;6.17;;;16.80;55.30;;;;;;5025411;28;20471;-87
2021/04/09 11:19:36;;;;;;;9.63;6.60;;;16.80;53.90;;;;;;5033593;28;20483;-86
2021/04/09 11:22:06;;;;;;;9.33;6.13;;;16.70;54.60;;;;;;5014980;28;20464;-87
2021/04/09 11:24:35;;;;;;;17.00;6.43;;;16.70;56.80;;;;;;5029331;28;20480;-87
2021/04/09 11:27:18;;;;;;;12.03;7.37;;;16.70;54.10;;;;;;5033481;28;20853;-88
2021/04/09 11:29:45;;;;;;;8.57;6.67;;;16.60;55.60;;;;;;5031980;28;20478;-86
2021/04/09 11:32:15;;;;;;;9.90;7.40;;;17.40;55.10;;;;;;5049625;28;20580;-88
2021/04/09 11:34:45;;;;;;;8.43;6.47;;;17.40;55.10;;;;;;5046398;28;21095;-87
2021/04/09 11:37:15;;;;;;;11.80;6.90;;;17.80;56.30;;;;;;5043688;28;20484;-89
2021/04/09 11:39:53;;;;;;;8.50;6.67;;;18.80;55.70;;;;;;5039160;28;20541;-89
2021/04/09 11:42:28;;;;;;;11.73;6.20;;;18.90;55.50;;;;;;5009925;28;20574;-90
2021/04/09 11:44:57;;;;;;;10.30;6.80;;;19.30;54.40;;;;;;5008469;28;20583;-87
2021/04/09 11:47:27;;;;;;;9.70;6.93;;;19.30;51.30;;;;;;5035846;28;20482;-84
2021/04/09 11:50:13;;;;;;;9.90;7.10;;;19.60;51.80;;;;;;5042677;28;21017;-83
2021/04/09 11:52:52;;;;;;;7.50;6.13;;;20.60;50.10;;;;;;5011623;28;20599;-85
2021/04/09 11:55:21;;;;;;;11.30;6.87;;;22.40;47.00;;;;;;4999937;28;21024;-85
2021/04/09 11:57:48;;;;;;;6.80;5.87;;;22.90;45.20;;;;;;5008996;28;20559;-85
2021/04/09 12:00:24;;;;;;;10.20;6.40;;;23.40;46.00;;;;;;5015089;28;20971;-84
2021/04/09 12:02:53;;;;;;;10.03;5.97;;;25.00;41.70;;;;;;5011291;28;20487;-87
2021/04/09 12:05:22;;;;;;;9.23;6.70;;;25.00;41.70;;;;;;5022762;28;21248;-85
2021/04/09 12:07:50;;;;;;;6.73;5.90;;;24.80;42.80;;;;;;5020413;28;20534;-87
2021/04/09 12:10:21;;;;;;;10.60;6.67;;;25.50;43.10;;;;;;4998472;28;20520;-85
2021/04/09 12:12:48;;;;;;;8.07;6.90;;;25.90;41.90;;;;;;5024529;28;20471;-84
2021/04/09 12:15:17;;;;;;;9.23;6.30;;;25.90;41.90;;;;;;4997383;28;20472;-85
2021/04/09 12:17:45;;;;;;;6.53;5.93;;;26.20;41.10;;;;;;5034211;28;20506;-83
2021/04/09 12:20:14;;;;;;;8.90;5.87;;;23.30;42.80;;;;;;5050220;28;21061;-84
2021/04/09 12:22:41;;;;;;;9.10;6.77;;;23.20;42.80;;;;;;5032184;28;20538;-83
2021/04/09 12:25:11;;;;;;;7.93;5.80;;;22.10;44.30;;;;;;5013087;28;20476;-85
2021/04/09 12:27:40;;;;;;;9.13;6.40;;;21.90;46.30;;;;;;5022552;28;20475;-85
2021/04/09 12:30:09;;;;;;;7.33;5.50;;;21.90;46.30;;;;;;5023941;28;22273;-85
2021/04/09 12:32:36;;;;;;;12.90;5.90;;;23.50;44.10;;;;;;5025431;28;20885;-85
2021/04/09 12:35:05;;;;;;;7.17;6.20;;;23.40;43.60;;;;;;5022411;28;20501;-85
2021/04/09 12:37:32;;;;;;;6.20;5.60;;;24.20;43.60;;;;;;5016650;28;20475;-84
2021/04/09 12:39:59;;;;;;;11.50;6.73;;;;;;;;;;5014007;28;20500;-85
2021/04/09 12:42:27;;;;;;;9.73;7.03;;;25.00;42.80;;;;;;5014234;28;20488;-86
2021/04/09 12:44:54;;;;;;;9.00;6.83;;;25.20;43.50;;;;;;5016406;28;20908;-85
2021/04/09 12:47:23;;;;;;;8.27;5.93;;;25.20;43.50;;;;;;5038610;28;21615;-87
2021/04/09 12:49:51;;;;;;;7.20;5.97;;;25.50;42.80;;;;;;5042216;28;20602;-85
2021/04/09 12:52:18;;;;;;;11.33;6.70;;;27.20;42.30;;;;;;5041583;28;20467;-85
2021/04/09 12:54:45;;;;;;;7.63;6.73;;;;;;;;;;5021236;28;20513;-86
2021/04/09 12:57:15;;;;;;;8.23;6.37;;;30.20;39.40;;;;;;5011826;28;20477;-85